createdAt,value
2022-12-25T00:02:17.736Z,100762.59
2022-12-25T00:04:45.905Z,100761.91
2022-12-25T00:07:13.600Z,100764.56
2022-12-25T00:09:41.279Z,100763.88
2022-12-25T00:12:08.982Z,100766.97
2022-12-25T00:14:36.655Z,100758.47
2022-12-25T00:17:04.377Z,100751.47
2022-12-25T00:19:33.672Z,100742.97
2022-12-25T00:22:01.419Z,100738.34
2022-12-25T00:24:29.089Z,100729.00
2022-12-25T00:26:57.155Z,100730.00
2022-12-25T00:29:24.839Z,100721.03
2022-12-25T00:31:52.627Z,100719.38
2022-12-25T00:34:20.351Z,100723.00
2022-12-25T00:36:52.994Z,100728.31
2022-12-25T00:39:22.100Z,100722.31
2022-12-25T00:42:07.516Z,100726.34
2022-12-25T00:44:35.409Z,100729.69
2022-12-25T00:47:03.604Z,100726.34
2022-12-25T00:49:31.413Z,100731.34
2022-12-25T00:52:00.841Z,100733.31
2022-12-25T00:54:28.536Z,100734.84
2022-12-25T00:56:56.351Z,100735.00
2022-12-25T00:59:24.069Z,100737.66
2022-12-25T01:01:51.968Z,100735.00
2022-12-25T01:04:19.738Z,100742.44
2022-12-25T01:06:47.457Z,100750.09
2022-12-25T01:09:34.166Z,100741.69
2022-12-25T01:12:01.915Z,100747.00
2022-12-25T01:14:29.652Z,100752.31
2022-12-25T01:16:57.402Z,100755.34
2022-12-25T01:19:25.158Z,100741.38
2022-12-25T01:21:52.891Z,100755.69
2022-12-25T01:24:21.909Z,100759.41
2022-12-25T01:26:49.650Z,100750.28
2022-12-25T01:29:17.603Z,100757.59
2022-12-25T01:31:45.476Z,100763.03
2022-12-25T01:34:13.466Z,100774.38
2022-12-25T01:36:41.118Z,100772.53
2022-12-25T01:39:08.867Z,100773.78
2022-12-25T01:41:37.956Z,100775.84
2022-12-25T01:44:09.402Z,100772.22
2022-12-25T01:46:37.403Z,100764.69
2022-12-25T01:49:09.023Z,100760.09
2022-12-25T01:51:41.114Z,100762.06
2022-12-25T01:54:12.773Z,100758.16
2022-12-25T01:56:44.236Z,100761.00
2022-12-25T01:59:14.752Z,100743.09
2022-12-25T02:01:42.774Z,100744.78
2022-12-25T02:04:17.920Z,100740.31
2022-12-25T02:06:46.189Z,100728.31
2022-12-25T02:09:13.873Z,100727.78
2022-12-25T02:11:58.372Z,100725.72
2022-12-25T02:14:26.720Z,100721.13
2022-12-25T02:17:06.812Z,100725.34
2022-12-25T02:19:57.160Z,100721.47
2022-12-25T02:22:36.179Z,100717.13
2022-12-25T02:25:16.605Z,100714.22
2022-12-25T02:28:11.754Z,100705.88
2022-12-25T02:30:44.001Z,100703.91
2022-12-25T02:33:33.387Z,100707.94
2022-12-25T02:36:06.100Z,100710.03
2022-12-25T02:38:39.446Z,100705.28
2022-12-25T02:41:12.123Z,100694.69
2022-12-25T02:44:02.059Z,100698.31
2022-12-25T02:46:50.358Z,100697.47
2022-12-25T02:49:40.794Z,100698.44
2022-12-25T02:52:30.292Z,100698.59
2022-12-25T02:55:19.513Z,100693.00
2022-12-25T02:58:08.630Z,100692.72
2022-12-25T03:01:14.046Z,100689.91
2022-12-25T03:04:01.370Z,100689.75
2022-12-25T03:06:46.435Z,100672.84
2022-12-25T03:09:37.020Z,100672.97
2022-12-25T03:12:13.249Z,100680.72
2022-12-25T03:14:58.215Z,100689.22
2022-12-25T03:17:27.685Z,100685.59
2022-12-25T03:20:13.092Z,100677.34
2022-12-25T03:23:01.363Z,100669.53
2022-12-25T03:25:47.850Z,100674.03
2022-12-25T03:28:16.127Z,100675.97
2022-12-25T03:31:06.595Z,100686.53
2022-12-25T03:34:08.996Z,100686.53
2022-12-25T03:36:44.562Z,100682.81
2022-12-25T03:39:39.292Z,100678.84
2022-12-25T03:42:25.689Z,100671.88
2022-12-25T03:45:20.698Z,100666.47
2022-12-25T03:48:09.253Z,100670.78
2022-12-25T03:50:59.360Z,100669.50
2022-12-25T03:53:47.705Z,100660.94
2022-12-25T03:56:36.083Z,100649.78
2022-12-25T03:59:24.056Z,100645.00
2022-12-25T04:02:10.067Z,100646.72
2022-12-25T04:04:56.084Z,100642.53
2022-12-25T04:07:45.041Z,100647.00
2022-12-25T04:10:32.371Z,100639.63
2022-12-25T04:13:17.791Z,100632.94
2022-12-25T04:16:08.135Z,100634.31
2022-12-25T04:18:52.519Z,100633.25
2022-12-25T04:21:37.792Z,100640.94
2022-12-25T04:24:25.500Z,100640.81
2022-12-25T04:27:13.961Z,100648.75
2022-12-25T04:29:59.412Z,100642.47
2022-12-25T04:33:00.908Z,100659.09
2022-12-25T04:35:46.344Z,100653.78
2022-12-25T04:38:14.127Z,100666.75
2022-12-25T04:40:45.098Z,100659.63
2022-12-25T04:43:13.350Z,100655.84
2022-12-25T04:45:41.129Z,100662.91
2022-12-25T04:48:14.229Z,100667.31
2022-12-25T04:50:42.561Z,100656.09
2022-12-25T04:53:10.256Z,100662.09
2022-12-25T04:55:37.970Z,100655.53
2022-12-25T04:58:08.061Z,100648.88
2022-12-25T05:00:35.784Z,100643.72
2022-12-25T05:03:03.610Z,100636.22
2022-12-25T05:05:31.386Z,100628.06
2022-12-25T05:07:59.095Z,100641.97
2022-12-25T05:10:26.833Z,100634.97
2022-12-25T05:12:54.574Z,100635.81
2022-12-25T05:15:23.647Z,100641.97
2022-12-25T05:17:51.863Z,100645.31
2022-12-25T05:20:19.707Z,100637.47
2022-12-25T05:22:47.376Z,100642.56
2022-12-25T05:25:15.270Z,100632.22
2022-12-25T05:27:44.589Z,100618.44
2022-12-25T05:30:14.762Z,100604.31
2022-12-25T05:32:43.982Z,100606.97
2022-12-25T05:35:11.657Z,100608.81
2022-12-25T05:37:39.427Z,100609.63
2022-12-25T05:40:08.418Z,100612.94
2022-12-25T05:42:36.124Z,100608.03
2022-12-25T05:45:03.908Z,100606.06
2022-12-25T05:47:31.679Z,100608.06
2022-12-25T05:50:00.723Z,100611.69
2022-12-25T05:52:32.368Z,100631.34
2022-12-25T05:55:00.559Z,100640.38
2022-12-25T05:57:30.296Z,100637.84
2022-12-25T05:59:57.943Z,100632.22
2022-12-25T06:02:25.814Z,100620.84
2022-12-25T06:04:53.608Z,100624.34
2022-12-25T06:07:22.713Z,100623.69
2022-12-25T06:09:50.412Z,100620.34
2022-12-25T06:12:18.084Z,100620.63
2022-12-25T06:14:45.896Z,100623.28
2022-12-25T06:17:13.586Z,100615.59
2022-12-25T06:19:43.602Z,100612.94
2022-12-25T06:22:11.371Z,100601.81
2022-12-25T06:24:42.241Z,100596.66
2022-12-25T06:27:11.579Z,100603.09
2022-12-25T06:29:39.451Z,100606.56
2022-12-25T06:32:07.243Z,100608.09
2022-12-25T06:34:35.140Z,100606.81
2022-12-25T06:37:04.034Z,100602.88
2022-12-25T06:39:33.519Z,100603.72
2022-12-25T06:42:02.688Z,100592.50
2022-12-25T06:44:31.155Z,100583.53
2022-12-25T06:47:02.463Z,100595.22
2022-12-25T06:49:32.870Z,100609.88
2022-12-25T06:52:03.003Z,100619.75
2022-12-25T06:54:30.841Z,100622.56
2022-12-25T06:56:58.578Z,100615.81
2022-12-25T06:59:27.613Z,100618.63
2022-12-25T07:01:57.435Z,100616.66
2022-12-25T07:04:32.092Z,100618.00
2022-12-25T07:07:06.157Z,100617.75
2022-12-25T07:09:36.378Z,100611.66
2022-12-25T07:12:05.789Z,100606.72
2022-12-25T07:14:34.930Z,100601.72
2022-12-25T07:17:02.628Z,100595.31
2022-12-25T07:19:30.346Z,100591.69
2022-12-25T07:21:58.040Z,100587.09
2022-12-25T07:24:26.217Z,100587.44
2022-12-25T07:26:54.258Z,100580.69
2022-12-25T07:29:21.864Z,100586.69
2022-12-25T07:31:51.050Z,100577.19
2022-12-25T07:34:19.590Z,100575.78
2022-12-25T07:36:47.741Z,100579.75
2022-12-25T07:39:16.224Z,100588.84
2022-12-25T07:41:44.310Z,100569.63
2022-12-25T07:44:12.033Z,100578.78
2022-12-25T07:46:39.745Z,100586.13
2022-12-25T07:49:08.796Z,100589.16
2022-12-25T07:51:36.459Z,100591.25
2022-12-25T07:54:04.465Z,100604.53
2022-12-25T07:56:32.242Z,100604.53
2022-12-25T07:58:59.946Z,100611.50
2022-12-25T08:01:28.929Z,100609.84
2022-12-25T08:03:58.687Z,100596.22
2022-12-25T08:06:31.505Z,100589.09
2022-12-25T08:09:04.441Z,100586.00
2022-12-25T08:11:32.373Z,100576.69
2022-12-25T08:14:00.071Z,100568.28
2022-12-25T08:16:27.763Z,100566.41
2022-12-25T08:18:55.542Z,100568.16
2022-12-25T08:21:23.194Z,100568.47
2022-12-25T08:24:04.325Z,100559.28
2022-12-25T08:26:32.138Z,100564.03
2022-12-25T08:28:59.907Z,100573.97
2022-12-25T08:31:29.766Z,100564.88
2022-12-25T08:33:59.689Z,100554.97
2022-12-25T08:36:27.824Z,100541.09
2022-12-25T08:39:02.525Z,100527.97
2022-12-25T08:41:31.040Z,100521.31
2022-12-25T08:43:58.902Z,100536.41
2022-12-25T08:46:26.717Z,100538.94
2022-12-25T08:48:54.976Z,100540.91
2022-12-25T08:51:24.013Z,100547.03
2022-12-25T08:53:53.055Z,100547.59
2022-12-25T08:56:22.578Z,100556.53
2022-12-25T08:58:50.275Z,100566.63
2022-12-25T09:01:18.072Z,100559.56
2022-12-25T09:03:45.945Z,100561.63
2022-12-25T09:06:15.828Z,100551.38
2022-12-25T09:08:49.185Z,100547.59
2022-12-25T09:11:18.949Z,100551.59
2022-12-25T09:13:48.591Z,100558.28
2022-12-25T09:16:18.390Z,100566.06
2022-12-25T09:18:46.226Z,100571.38
2022-12-25T09:21:15.614Z,100567.91
2022-12-25T09:23:43.375Z,100555.84
2022-12-25T09:26:14.245Z,100562.19
2022-12-25T09:28:48.542Z,100566.72
2022-12-25T09:31:19.892Z,100554.94
2022-12-25T09:33:48.071Z,100552.59
2022-12-25T09:36:15.772Z,100542.13
2022-12-25T09:38:43.875Z,100550.88
2022-12-25T09:41:17.087Z,100548.38
2022-12-25T09:43:49.284Z,100536.25
2022-12-25T09:46:20.934Z,100525.13
2022-12-25T09:49:00.406Z,100523.41
2022-12-25T09:51:30.734Z,100517.56
2022-12-25T09:54:02.950Z,100517.50
2022-12-25T09:56:30.618Z,100513.72
2022-12-25T09:58:58.367Z,100507.72
2022-12-25T10:01:35.098Z,100509.16
2022-12-25T10:04:23.707Z,100512.00
2022-12-25T10:07:06.152Z,100503.53
2022-12-25T10:09:51.256Z,100487.75
2022-12-25T10:12:34.686Z,100493.41
2022-12-25T10:15:16.187Z,100507.22
2022-12-25T10:18:05.359Z,100501.72
2022-12-25T10:20:43.842Z,100495.75
2022-12-25T10:23:17.125Z,100484.31
2022-12-25T10:25:46.050Z,100486.97
2022-12-25T10:28:16.281Z,100486.59
2022-12-25T10:30:46.969Z,100477.28
2022-12-25T10:33:17.444Z,100479.28
2022-12-25T10:35:46.266Z,100475.50
2022-12-25T10:38:16.057Z,100478.53
2022-12-25T10:40:55.967Z,100475.56
2022-12-25T10:43:30.811Z,100468.41
2022-12-25T10:45:59.706Z,100465.22
2022-12-25T10:48:31.470Z,100478.22
2022-12-25T10:50:59.186Z,100470.06
2022-12-25T10:53:28.829Z,100477.22
2022-12-25T10:55:58.693Z,100463.34
2022-12-25T10:58:26.541Z,100461.50
2022-12-25T11:00:57.793Z,100462.53
2022-12-25T11:03:31.099Z,100449.88
2022-12-25T11:05:59.378Z,100447.88
2022-12-25T11:08:29.897Z,100449.25
2022-12-25T11:11:06.055Z,100454.25
2022-12-25T11:13:37.208Z,100451.59
2022-12-25T11:16:09.417Z,100453.41
2022-12-25T11:18:49.795Z,100456.75
2022-12-25T11:21:19.977Z,100466.72
2022-12-25T11:23:49.273Z,100451.44
2022-12-25T11:26:17.938Z,100446.59
2022-12-25T11:28:46.984Z,100447.94
2022-12-25T11:31:19.206Z,100442.44
2022-12-25T11:33:54.548Z,100445.25
2022-12-25T11:36:30.836Z,100432.91
2022-12-25T11:39:02.416Z,100430.28
2022-12-25T11:41:34.467Z,100420.63
2022-12-25T11:44:09.017Z,100414.63
2022-12-25T11:46:42.318Z,100407.16
2022-12-25T11:49:16.497Z,100391.84
2022-12-25T11:51:48.375Z,100383.00
2022-12-25T11:54:21.361Z,100384.34
2022-12-25T11:56:49.898Z,100368.34
2022-12-25T11:59:24.116Z,100362.38
2022-12-25T12:01:57.492Z,100359.56
2022-12-25T12:04:36.845Z,100354.06
2022-12-25T12:07:18.159Z,100349.69
2022-12-25T12:09:52.204Z,100349.03
2022-12-25T12:12:24.387Z,100345.16
2022-12-25T12:14:59.444Z,100341.16
2022-12-25T12:17:27.779Z,100334.81
2022-12-25T12:19:56.790Z,100345.59
2022-12-25T12:22:27.208Z,100344.78
2022-12-25T12:25:01.455Z,100355.63
2022-12-25T12:27:36.026Z,100361.13
2022-12-25T12:30:04.416Z,100351.75
2022-12-25T12:32:41.834Z,100357.22
2022-12-25T12:35:18.271Z,100350.59
2022-12-25T12:37:48.812Z,100343.94
2022-12-25T12:40:32.355Z,100346.56
2022-12-25T12:43:00.800Z,100351.91
2022-12-25T12:45:32.088Z,100358.88
2022-12-25T12:48:00.025Z,100360.56
2022-12-25T12:50:32.587Z,100359.25
2022-12-25T12:53:05.533Z,100358.09
2022-12-25T12:55:35.585Z,100358.75
2022-12-25T12:58:05.552Z,100349.25
2022-12-25T13:00:40.218Z,100357.09
2022-12-25T13:03:29.285Z,100342.56
2022-12-25T13:06:03.585Z,100334.50
2022-12-25T13:08:43.595Z,100336.59
2022-12-25T13:11:20.989Z,100327.59
2022-12-25T13:13:56.525Z,100331.38
2022-12-25T13:16:29.244Z,100325.41
2022-12-25T13:18:57.634Z,100328.78
2022-12-25T13:21:28.885Z,100317.47
2022-12-25T13:23:58.379Z,100312.88
2022-12-25T13:26:26.848Z,100321.38
2022-12-25T13:28:55.943Z,100308.56
2022-12-25T13:31:25.767Z,100308.56
2022-12-25T13:33:59.065Z,100311.56
2022-12-25T13:36:30.882Z,100311.56
2022-12-25T13:39:00.511Z,100301.25
2022-12-25T13:41:52.592Z,100300.06
2022-12-25T13:44:22.998Z,100290.09
2022-12-25T13:46:50.737Z,100278.94
2022-12-25T13:49:21.125Z,100276.91
2022-12-25T13:51:51.208Z,100287.09
2022-12-25T13:54:20.120Z,100282.91
2022-12-25T13:56:50.004Z,100284.25
2022-12-25T13:59:19.871Z,100277.72
2022-12-25T14:01:48.556Z,100283.59
2022-12-25T14:04:18.344Z,100290.91
2022-12-25T14:06:46.040Z,100301.03
2022-12-25T14:09:16.289Z,100289.75
2022-12-25T14:11:49.813Z,100297.25
2022-12-25T14:14:21.268Z,100294.56
2022-12-25T14:16:50.639Z,100290.38
2022-12-25T14:19:26.651Z,100297.06
2022-12-25T14:22:00.437Z,100291.97
2022-12-25T14:24:35.045Z,100293.91
2022-12-25T14:27:12.113Z,100297.75
2022-12-25T14:29:44.207Z,100304.56
2022-12-25T14:32:17.778Z,100305.94
2022-12-25T14:34:47.969Z,100302.94
2022-12-25T14:37:20.407Z,100316.94
2022-12-25T14:39:59.852Z,100318.91
2022-12-25T14:42:29.667Z,100316.91
2022-12-25T14:45:00.632Z,100307.75
2022-12-25T14:47:32.145Z,100305.94
2022-12-25T14:50:00.077Z,100306.06
2022-12-25T14:52:30.813Z,100300.91
2022-12-25T14:55:02.741Z,100302.94
2022-12-25T14:57:33.740Z,100306.78
2022-12-25T15:00:09.437Z,100299.28
2022-12-25T15:02:44.372Z,100295.63
2022-12-25T15:05:27.264Z,100292.47
2022-12-25T15:08:22.389Z,100301.00
2022-12-25T15:11:01.490Z,100305.66
2022-12-25T15:13:30.689Z,100297.66
2022-12-25T15:16:01.982Z,100292.50
2022-12-25T15:18:39.537Z,100300.66
2022-12-25T15:21:08.067Z,100288.38
2022-12-25T15:23:35.763Z,100287.53
2022-12-25T15:26:04.939Z,100288.19
2022-12-25T15:28:32.754Z,100301.72
2022-12-25T15:31:00.573Z,100289.69
2022-12-25T15:33:28.298Z,100291.53
2022-12-25T15:35:56.028Z,100297.06
2022-12-25T15:38:24.171Z,100294.91
2022-12-25T15:40:52.269Z,100309.25
2022-12-25T15:43:39.970Z,100306.91
2022-12-25T15:46:10.210Z,100312.41
2022-12-25T15:48:38.056Z,100316.41
2022-12-25T15:51:05.982Z,100315.75
2022-12-25T15:53:33.649Z,100317.59
2022-12-25T15:56:08.309Z,100330.72
2022-12-25T15:58:37.321Z,100338.06
2022-12-25T16:01:05.218Z,100318.75
2022-12-25T16:03:33.265Z,100327.41
2022-12-25T16:06:01.089Z,100321.25
2022-12-25T16:08:28.828Z,100319.78
2022-12-25T16:10:56.566Z,100320.78
2022-12-25T16:13:24.284Z,100319.28
2022-12-25T16:15:53.397Z,100312.78
2022-12-25T16:18:21.475Z,100314.44
2022-12-25T16:20:49.220Z,100317.78
2022-12-25T16:23:17.045Z,100306.97
2022-12-25T16:25:44.845Z,100294.50
2022-12-25T16:28:12.673Z,100288.66
2022-12-25T16:30:41.490Z,100286.00
2022-12-25T16:33:11.641Z,100273.88
2022-12-25T16:35:39.586Z,100283.84
2022-12-25T16:38:08.066Z,100292.28
2022-12-25T16:40:36.253Z,100302.13
2022-12-25T16:43:04.012Z,100312.75
2022-12-25T16:45:31.759Z,100331.09
2022-12-25T16:47:59.515Z,100333.91
2022-12-25T16:50:28.545Z,100335.91
2022-12-25T16:52:56.295Z,100324.59
2022-12-25T16:55:29.607Z,100329.75
2022-12-25T16:57:58.028Z,100325.25
2022-12-25T17:00:26.410Z,100327.28
2022-12-25T17:02:54.631Z,100330.25
2022-12-25T17:05:22.609Z,100337.56
2022-12-25T17:07:52.015Z,100318.25
2022-12-25T17:10:21.273Z,100321.94
2022-12-25T17:12:49.118Z,100331.75
2022-12-25T17:15:16.989Z,100338.72
2022-12-25T17:17:44.739Z,100343.22
2022-12-25T17:20:13.117Z,100350.03
2022-12-25T17:22:40.869Z,100363.66
2022-12-25T17:25:10.609Z,100346.84
2022-12-25T17:27:38.336Z,100346.38
2022-12-25T17:30:07.215Z,100338.03
2022-12-25T17:32:35.559Z,100338.72
2022-12-25T17:35:03.461Z,100337.72
2022-12-25T17:37:32.041Z,100329.88
2022-12-25T17:39:59.791Z,100332.53
2022-12-25T17:42:28.857Z,100329.88
2022-12-25T17:44:56.689Z,100319.09
2022-12-25T17:47:26.551Z,100318.25
2022-12-25T17:49:54.323Z,100312.78
2022-12-25T17:52:22.096Z,100319.09
2022-12-25T17:54:49.781Z,100318.78
2022-12-25T17:57:17.710Z,100336.72
2022-12-25T17:59:46.837Z,100316.44
2022-12-25T18:02:14.573Z,100315.09
2022-12-25T18:04:42.344Z,100318.59
2022-12-25T18:07:10.122Z,100323.56
2022-12-25T18:09:37.817Z,100319.59
2022-12-25T18:12:06.282Z,100322.91
2022-12-25T18:14:34.093Z,100320.75
2022-12-25T18:17:03.126Z,100322.75
2022-12-25T18:19:30.854Z,100339.38
2022-12-25T18:21:58.633Z,100340.38
2022-12-25T18:24:26.319Z,100341.19
2022-12-25T18:26:53.990Z,100334.72
2022-12-25T18:29:21.757Z,100339.53
2022-12-25T18:31:49.505Z,100337.72
2022-12-25T18:34:18.704Z,100334.72
2022-12-25T18:36:46.459Z,100341.66
2022-12-25T18:39:14.441Z,100341.34
2022-12-25T18:41:56.100Z,100336.16
2022-12-25T18:44:23.894Z,100324.84
2022-12-25T18:46:51.565Z,100326.34
2022-12-25T18:49:20.633Z,100330.81
2022-12-25T18:51:49.755Z,100335.28
2022-12-25T18:54:17.424Z,100324.50
2022-12-25T18:56:47.413Z,100313.38
2022-12-25T18:59:18.576Z,100332.31
2022-12-25T19:01:46.487Z,100333.47
2022-12-25T19:04:16.213Z,100324.66
2022-12-25T19:06:45.347Z,100331.34
2022-12-25T19:09:13.251Z,100326.34
2022-12-25T19:11:46.538Z,100319.38
2022-12-25T19:14:14.870Z,100310.56
2022-12-25T19:16:42.721Z,100307.59
2022-12-25T19:19:10.526Z,100300.75
2022-12-25T19:21:38.456Z,100296.28
2022-12-25T19:24:08.060Z,100299.44
2022-12-25T19:26:37.636Z,100297.09
2022-12-25T19:29:05.481Z,100299.09
2022-12-25T19:31:33.306Z,100287.78
2022-12-25T19:34:01.119Z,100291.78
2022-12-25T19:36:28.809Z,100284.13
2022-12-25T19:38:56.599Z,100278.50
2022-12-25T19:41:25.754Z,100278.81
2022-12-25T19:43:53.595Z,100292.31
2022-12-25T19:46:23.297Z,100298.94
2022-12-25T19:48:51.339Z,100325.06
2022-12-25T19:51:21.306Z,100344.19
2022-12-25T19:53:49.207Z,100335.03
2022-12-25T19:56:17.293Z,100332.25
2022-12-25T19:58:46.610Z,100324.41
2022-12-25T20:01:20.551Z,100320.25
2022-12-25T20:03:49.536Z,100306.13
2022-12-25T20:06:22.636Z,100311.94
2022-12-25T20:08:52.612Z,100301.00
2022-12-25T20:11:20.923Z,100306.31
2022-12-25T20:13:51.463Z,100313.47
2022-12-25T20:16:20.021Z,100305.81
2022-12-25T20:18:47.833Z,100310.97
2022-12-25T20:21:17.955Z,100314.13
2022-12-25T20:23:47.579Z,100323.44
2022-12-25T20:26:19.177Z,100324.25
2022-12-25T20:28:48.236Z,100326.41
2022-12-25T20:31:19.777Z,100324.78
2022-12-25T20:33:48.231Z,100319.25
2022-12-25T20:36:16.170Z,100315.78
2022-12-25T20:38:43.938Z,100328.28
2022-12-25T20:41:30.226Z,100323.44
2022-12-25T20:43:58.643Z,100336.06
2022-12-25T20:46:29.072Z,100332.91
2022-12-25T20:48:56.877Z,100337.88
2022-12-25T20:51:26.866Z,100336.41
2022-12-25T20:53:55.109Z,100345.38
2022-12-25T20:56:25.103Z,100342.88
2022-12-25T20:58:57.156Z,100343.03
2022-12-25T21:01:32.411Z,100343.03
2022-12-25T21:04:00.635Z,100344.03
2022-12-25T21:06:28.403Z,100349.03
2022-12-25T21:08:56.154Z,100353.03
2022-12-25T21:11:24.105Z,100377.31
2022-12-25T21:13:52.087Z,100363.50
2022-12-25T21:16:22.645Z,100365.19
2022-12-25T21:18:53.928Z,100367.19
2022-12-25T21:21:22.446Z,100363.84
2022-12-25T21:23:50.163Z,100366.19
2022-12-25T21:26:20.764Z,100361.38
2022-12-25T21:28:49.511Z,100359.72
2022-12-25T21:31:17.932Z,100353.75
2022-12-25T21:33:54.028Z,100369.03
2022-12-25T21:36:26.913Z,100383.00
2022-12-25T21:38:57.274Z,100383.84
2022-12-25T21:41:25.908Z,100383.69
2022-12-25T21:43:53.833Z,100391.00
2022-12-25T21:46:21.620Z,100392.47
2022-12-25T21:48:49.641Z,100386.00
2022-12-25T21:51:38.041Z,100379.84
2022-12-25T21:54:08.611Z,100375.00
2022-12-25T21:56:43.549Z,100369.53
2022-12-25T21:59:15.088Z,100385.16
2022-12-25T22:01:42.971Z,100393.31
2022-12-25T22:04:10.832Z,100394.34
2022-12-25T22:06:56.076Z,100393.31
2022-12-25T22:09:25.371Z,100394.66
2022-12-25T22:12:10.502Z,100401.66
2022-12-25T22:14:56.388Z,100407.47
2022-12-25T22:17:44.037Z,100416.28
2022-12-25T22:20:14.041Z,100410.13
2022-12-25T22:22:41.763Z,100406.97
2022-12-25T22:25:11.948Z,100399.97
2022-12-25T22:27:41.345Z,100401.28
2022-12-25T22:30:11.972Z,100399.31
2022-12-25T22:32:39.830Z,100405.44
2022-12-25T22:35:08.217Z,100405.97
2022-12-25T22:37:36.880Z,100419.44
2022-12-25T22:40:05.957Z,100418.09
2022-12-25T22:42:35.092Z,100411.63
2022-12-25T22:45:03.108Z,100404.31
2022-12-25T22:47:30.876Z,100407.63
2022-12-25T22:49:58.661Z,100407.13
2022-12-25T22:52:26.643Z,100416.94
2022-12-25T22:54:54.427Z,100412.28
2022-12-25T22:57:22.153Z,100419.63
2022-12-25T22:59:52.718Z,100425.28
2022-12-25T23:02:20.936Z,100416.78
2022-12-25T23:04:49.243Z,100411.63
2022-12-25T23:07:17.445Z,100421.97
2022-12-25T23:09:45.706Z,100419.78
2022-12-25T23:12:33.430Z,100426.44
2022-12-25T23:15:01.607Z,100423.94
2022-12-25T23:17:46.779Z,100417.44
2022-12-25T23:20:32.819Z,100428.41
2022-12-25T23:23:18.244Z,100429.25
2022-12-25T23:26:03.689Z,100425.25
2022-12-25T23:28:49.078Z,100435.09
2022-12-25T23:31:18.588Z,100416.44
2022-12-25T23:33:46.349Z,100429.75
2022-12-25T23:36:14.049Z,100417.75
2022-12-25T23:38:41.830Z,100409.28
2022-12-25T23:41:09.511Z,100411.41
2022-12-25T23:43:37.265Z,100403.78
2022-12-25T23:46:05.116Z,100408.09
2022-12-25T23:48:34.230Z,100409.28
2022-12-25T23:51:04.994Z,100417.91
2022-12-25T23:53:32.989Z,100392.31
2022-12-25T23:56:01.411Z,100395.63
2022-12-25T23:58:30.267Z,100407.78
